createdAt,value
2022-10-05T00:00:55.652Z,9.25
2022-10-05T00:03:24.108Z,9.50
2022-10-05T00:05:50.642Z,8.90
2022-10-05T00:08:25.144Z,9.00
2022-10-05T00:10:52.473Z,11.25
2022-10-05T00:13:28.113Z,9.68
2022-10-05T00:16:04.885Z,9.00
2022-10-05T00:18:32.543Z,10.02
2022-10-05T00:20:59.919Z,9.30
2022-10-05T00:23:30.919Z,10.43
2022-10-05T00:26:06.681Z,10.15
2022-10-05T00:28:33.163Z,10.73
2022-10-05T00:31:00.955Z,9.63
2022-10-05T00:33:27.935Z,11.15
2022-10-05T00:35:55.450Z,9.80
2022-10-05T00:38:22.365Z,10.85
2022-10-05T00:41:11.492Z,10.57
2022-10-05T00:44:08.268Z,10.95
2022-10-05T00:46:53.708Z,10.50
2022-10-05T00:49:43.550Z,10.82
2022-10-05T00:52:43.913Z,10.65
2022-10-05T00:55:30.665Z,10.43
2022-10-05T00:58:25.047Z,12.15
2022-10-05T01:01:27.194Z,12.35
2022-10-05T01:03:53.666Z,11.02
2022-10-05T01:06:43.444Z,12.15
2022-10-05T01:09:35.737Z,10.90
2022-10-05T01:14:56.258Z,11.95
2022-10-05T01:17:45.140Z,12.23
2022-10-05T01:20:27.949Z,10.75
2022-10-05T01:23:22.124Z,11.88
2022-10-05T01:26:07.357Z,10.85
2022-10-05T01:28:44.035Z,12.73
2022-10-05T01:31:39.651Z,14.48
2022-10-05T01:34:43.017Z,12.02
2022-10-05T01:37:29.655Z,12.40
2022-10-05T01:40:00.492Z,11.75
2022-10-05T01:42:59.024Z,11.90
2022-10-05T01:45:52.857Z,11.85
2022-10-05T01:48:47.503Z,12.10
2022-10-05T01:51:41.953Z,11.23
2022-10-05T01:54:21.965Z,13.18
2022-10-05T01:57:29.999Z,11.43
2022-10-05T02:00:10.069Z,11.63
2022-10-05T02:02:50.328Z,11.52
2022-10-05T02:05:55.463Z,11.27
2022-10-05T02:08:30.324Z,11.93
2022-10-05T02:11:06.076Z,11.52
2022-10-05T02:13:32.636Z,13.02
2022-10-05T02:16:35.725Z,11.98
2022-10-05T02:19:11.836Z,12.68
2022-10-05T02:21:45.086Z,11.05
2022-10-05T02:24:22.053Z,11.48
2022-10-05T02:26:52.733Z,12.88
2022-10-05T02:29:23.829Z,11.50
2022-10-05T02:32:00.404Z,13.45
2022-10-05T02:34:41.454Z,11.88
2022-10-05T02:37:34.685Z,11.43
2022-10-05T02:40:41.411Z,12.98
2022-10-05T02:43:32.738Z,11.63
2022-10-05T02:46:15.243Z,13.98
2022-10-05T02:48:54.936Z,11.15
2022-10-05T02:51:30.229Z,11.60
2022-10-05T02:53:56.646Z,11.80
2022-10-05T02:56:44.505Z,11.45
2022-10-05T02:59:21.833Z,12.00
2022-10-05T03:01:56.267Z,11.82
2022-10-05T03:04:38.381Z,12.30
2022-10-05T03:07:20.817Z,11.38
2022-10-05T03:10:05.887Z,11.45
2022-10-05T03:12:52.921Z,11.82
2022-10-05T03:15:40.133Z,12.10
2022-10-05T03:18:18.875Z,12.60
2022-10-05T03:21:09.997Z,13.45
2022-10-05T03:23:42.585Z,11.70
2022-10-05T03:26:32.616Z,11.23
2022-10-05T03:29:06.469Z,11.00
2022-10-05T03:31:59.154Z,12.07
2022-10-05T03:34:32.973Z,10.27
2022-10-05T03:37:07.242Z,10.63
2022-10-05T03:39:46.471Z,10.55
2022-10-05T03:42:59.756Z,11.60
2022-10-05T03:45:49.274Z,12.25
2022-10-05T03:48:23.357Z,12.98
2022-10-05T03:51:05.099Z,10.63
2022-10-05T03:56:18.206Z,10.15
2022-10-05T03:59:03.782Z,12.23
2022-10-05T04:01:42.172Z,10.40
2022-10-05T04:04:15.717Z,10.57
2022-10-05T04:06:47.999Z,11.75
2022-10-05T04:09:20.553Z,12.48
2022-10-05T04:11:54.123Z,11.98
2022-10-05T04:14:37.824Z,11.85
2022-10-05T04:17:33.587Z,11.93
2022-10-05T04:20:06.091Z,11.35
2022-10-05T04:22:43.834Z,10.52
2022-10-05T04:25:29.127Z,11.27
2022-10-05T04:28:17.397Z,10.23
2022-10-05T04:30:47.698Z,13.02
2022-10-05T04:33:15.923Z,13.95
2022-10-05T04:35:50.093Z,11.65
2022-10-05T04:38:49.087Z,11.70
2022-10-05T04:41:33.948Z,11.23
2022-10-05T04:44:39.778Z,15.88
2022-10-05T04:47:28.599Z,13.63
2022-10-05T04:50:04.316Z,12.32
2022-10-05T04:52:36.650Z,10.60
2022-10-05T04:55:30.144Z,10.80
2022-10-05T04:58:17.633Z,18.90
2022-10-05T05:01:12.966Z,12.55
2022-10-05T05:04:04.552Z,9.75
2022-10-05T05:06:45.621Z,10.63
2022-10-05T05:09:38.078Z,9.97
2022-10-05T05:12:10.493Z,10.05
2022-10-05T05:14:53.679Z,10.20
2022-10-05T05:17:34.056Z,9.73
2022-10-05T05:20:18.235Z,12.00
2022-10-05T05:23:08.929Z,9.50
2022-10-05T05:26:05.778Z,11.70
2022-10-05T05:28:58.506Z,9.45
2022-10-05T05:31:33.207Z,9.27
2022-10-05T05:34:19.999Z,8.85
2022-10-05T05:37:09.166Z,8.73
2022-10-05T05:39:44.729Z,11.35
2022-10-05T05:42:21.476Z,8.43
2022-10-05T05:44:56.013Z,9.23
2022-10-05T05:47:37.756Z,9.73
2022-10-05T05:50:33.193Z,8.70
2022-10-05T05:53:10.867Z,8.65
2022-10-05T05:55:46.139Z,9.15
2022-10-05T05:58:27.273Z,8.45
2022-10-05T06:01:20.226Z,9.32
2022-10-05T06:04:10.653Z,7.90
2022-10-05T06:06:42.372Z,9.73
2022-10-05T06:09:43.208Z,9.90
2022-10-05T06:12:41.475Z,9.48
2022-10-05T06:15:24.484Z,8.90
2022-10-05T06:17:55.868Z,8.95
2022-10-05T06:20:30.699Z,8.45
2022-10-05T06:23:04.777Z,8.80
2022-10-05T06:25:50.716Z,8.35
2022-10-05T06:28:19.526Z,7.53
2022-10-05T06:31:11.257Z,9.95
2022-10-05T06:33:52.391Z,7.53
2022-10-05T06:36:59.549Z,8.43
2022-10-05T06:39:33.483Z,7.40
2022-10-05T06:42:22.423Z,7.50
2022-10-05T06:45:38.655Z,6.90
2022-10-05T06:48:24.387Z,7.13
2022-10-05T06:51:26.628Z,6.85
2022-10-05T06:54:28.019Z,7.45
2022-10-05T06:57:33.179Z,7.95
2022-10-05T07:00:15.809Z,8.38
2022-10-05T07:02:52.240Z,6.82
2022-10-05T07:05:24.805Z,7.15
2022-10-05T07:08:13.637Z,8.48
2022-10-05T07:11:07.270Z,6.53
2022-10-05T07:13:55.308Z,7.70
2022-10-05T07:16:50.491Z,6.35
2022-10-05T07:19:44.972Z,6.10
2022-10-05T07:22:23.654Z,6.43
2022-10-05T07:25:21.168Z,6.07
2022-10-05T07:27:55.631Z,6.35
2022-10-05T07:30:22.672Z,6.53
2022-10-05T07:32:55.887Z,6.85
2022-10-05T07:35:51.625Z,8.23
2022-10-05T07:38:45.871Z,6.10
2022-10-05T07:41:23.798Z,8.02
2022-10-05T07:44:02.434Z,7.70
2022-10-05T07:46:51.125Z,7.10
2022-10-05T07:49:32.442Z,6.63
2022-10-05T07:52:06.835Z,8.05
2022-10-05T07:54:44.150Z,7.55
2022-10-05T07:57:29.886Z,7.03
2022-10-05T08:00:05.785Z,7.82
2022-10-05T08:02:59.952Z,7.28
2022-10-05T08:05:30.924Z,8.13
2022-10-05T08:08:13.319Z,8.63
2022-10-05T08:10:55.111Z,8.18
2022-10-05T08:13:35.135Z,8.00
2022-10-05T08:16:05.851Z,7.63
2022-10-05T08:19:00.503Z,7.27
2022-10-05T08:21:40.097Z,8.45
2022-10-05T08:24:18.932Z,9.40
2022-10-05T08:26:51.828Z,8.73
2022-10-05T08:29:32.869Z,8.75
2022-10-05T08:32:05.052Z,6.25
2022-10-05T08:34:53.315Z,6.95
2022-10-05T08:37:40.521Z,8.23
2022-10-05T08:40:18.858Z,6.30
2022-10-05T08:43:37.608Z,7.57
2022-10-05T08:46:22.354Z,7.95
2022-10-05T08:49:19.581Z,7.78
2022-10-05T08:52:23.587Z,6.78
2022-10-05T08:55:22.848Z,6.93
2022-10-05T08:58:18.448Z,7.18
2022-10-05T09:01:14.253Z,6.80
2022-10-05T09:04:11.431Z,9.10
2022-10-05T09:07:16.356Z,6.50
2022-10-05T09:10:00.811Z,6.00
2022-10-05T09:12:50.191Z,8.05
2022-10-05T09:15:52.224Z,6.20
2022-10-05T09:21:13.989Z,5.90
2022-10-05T09:23:44.929Z,7.43
2022-10-05T09:26:50.073Z,5.80
2022-10-05T09:29:38.389Z,6.05
2022-10-05T09:32:40.712Z,6.30
2022-10-05T09:35:21.204Z,6.18
2022-10-05T09:37:59.909Z,5.43
2022-10-05T09:40:54.996Z,7.18
2022-10-05T09:43:40.232Z,6.22
2022-10-05T09:46:21.894Z,6.18
2022-10-05T09:49:11.437Z,6.57
2022-10-05T09:52:06.041Z,7.45
2022-10-05T09:54:56.783Z,5.35
2022-10-05T09:57:53.203Z,5.85
2022-10-05T10:00:34.767Z,5.60
2022-10-05T10:03:52.272Z,5.30
2022-10-05T10:06:39.680Z,5.47
2022-10-05T10:09:18.277Z,5.45
2022-10-05T10:12:16.886Z,6.97
2022-10-05T10:15:07.942Z,5.43
2022-10-05T10:17:53.815Z,5.20
2022-10-05T10:20:20.229Z,5.40
2022-10-05T10:23:09.767Z,7.00
2022-10-05T10:25:58.388Z,6.22
2022-10-05T10:28:43.352Z,6.22
2022-10-05T10:31:37.722Z,5.43
2022-10-05T10:35:04.020Z,5.25
2022-10-05T10:37:58.434Z,6.43
2022-10-05T10:40:38.887Z,5.32
2022-10-05T10:43:41.082Z,5.93
2022-10-05T10:46:20.554Z,5.00
2022-10-05T10:49:25.987Z,6.70
2022-10-05T10:52:09.005Z,5.25
2022-10-05T10:54:58.373Z,4.88
2022-10-05T10:57:44.766Z,5.32
2022-10-05T11:00:39.120Z,5.20
2022-10-05T11:03:42.064Z,5.78
2022-10-05T11:06:33.366Z,4.95
2022-10-05T11:09:31.442Z,4.80
2022-10-05T11:12:10.424Z,6.03
2022-10-05T11:15:06.394Z,5.60
2022-10-05T11:17:59.419Z,5.90
2022-10-05T11:20:59.729Z,5.28
2022-10-05T11:23:47.559Z,5.85
2022-10-05T11:26:57.855Z,4.28
2022-10-05T11:30:10.613Z,4.80
2022-10-05T11:32:56.137Z,4.28
2022-10-05T11:35:36.418Z,5.60
2022-10-05T11:38:36.704Z,4.65
2022-10-05T11:41:12.221Z,5.20
2022-10-05T11:43:47.464Z,5.25
2022-10-05T11:46:38.714Z,4.78
2022-10-05T11:49:21.879Z,4.47
2022-10-05T11:52:10.032Z,5.13
2022-10-05T11:55:10.350Z,4.10
2022-10-05T11:57:47.899Z,5.25
2022-10-05T12:00:23.708Z,4.10
2022-10-05T12:03:03.105Z,4.38
2022-10-05T12:05:48.197Z,4.78
2022-10-05T12:08:53.663Z,4.18
2022-10-05T12:11:44.022Z,8.32
2022-10-05T12:14:17.867Z,4.40
2022-10-05T12:16:49.446Z,3.80
2022-10-05T12:21:56.226Z,4.15
2022-10-05T12:24:37.576Z,3.70
2022-10-05T12:27:25.234Z,6.18
2022-10-05T12:30:18.602Z,4.07
2022-10-05T12:32:55.874Z,4.13
2022-10-05T12:35:48.406Z,5.20
2022-10-05T12:39:03.534Z,4.53
2022-10-05T12:41:38.411Z,3.78
2022-10-05T12:44:11.229Z,3.50
2022-10-05T12:47:03.922Z,4.75
2022-10-05T12:50:05.349Z,3.58
2022-10-05T12:53:14.915Z,3.53
2022-10-05T12:56:06.029Z,3.55
2022-10-05T12:58:38.915Z,3.83
2022-10-05T13:01:25.318Z,3.80
2022-10-05T13:04:38.341Z,3.63
2022-10-05T13:07:12.658Z,3.50
2022-10-05T13:09:54.657Z,3.47
2022-10-05T13:12:38.693Z,3.45
2022-10-05T13:15:20.045Z,3.60
2022-10-05T13:18:14.956Z,4.90
2022-10-05T13:20:54.339Z,4.93
2022-10-05T13:23:49.497Z,3.65
2022-10-05T13:26:27.669Z,4.57
2022-10-05T13:29:26.713Z,4.68
2022-10-05T13:32:15.203Z,4.00
2022-10-05T13:35:11.380Z,3.80
2022-10-05T13:38:08.335Z,3.85
2022-10-05T13:40:57.877Z,4.93
2022-10-05T13:43:31.688Z,3.85
2022-10-05T13:46:12.660Z,4.03
2022-10-05T13:49:00.729Z,4.25
2022-10-05T13:51:54.556Z,4.85
2022-10-05T13:54:20.965Z,4.65
2022-10-05T13:57:08.676Z,4.57
2022-10-05T13:59:55.423Z,4.65
2022-10-05T14:02:38.198Z,4.28
2022-10-05T14:05:19.761Z,4.97
2022-10-05T14:07:51.127Z,4.53
2022-10-05T14:10:32.661Z,4.20
2022-10-05T14:13:00.805Z,4.65
2022-10-05T14:15:38.461Z,4.53
2022-10-05T14:18:28.601Z,5.25
2022-10-05T14:21:13.171Z,4.25
2022-10-05T14:23:40.064Z,5.50
2022-10-05T14:26:39.064Z,4.88
2022-10-05T14:29:14.320Z,4.18
2022-10-05T14:31:48.004Z,4.18
2022-10-05T14:34:41.829Z,4.40
2022-10-05T14:37:24.635Z,5.03
2022-10-05T14:39:54.599Z,4.15
2022-10-05T14:42:28.671Z,5.63
2022-10-05T14:45:17.649Z,6.22
2022-10-05T14:48:02.073Z,4.82
2022-10-05T14:50:31.245Z,4.75
2022-10-05T14:53:21.126Z,5.28
2022-10-05T14:56:25.133Z,4.60
2022-10-05T14:59:21.196Z,4.60
2022-10-05T15:02:19.649Z,6.13
2022-10-05T15:05:15.208Z,6.75
2022-10-05T15:07:44.414Z,6.03
2022-10-05T15:10:38.038Z,5.25
2022-10-05T15:13:24.089Z,4.47
2022-10-05T15:15:56.765Z,4.70
2022-10-05T15:18:32.001Z,4.95
2022-10-05T15:21:13.976Z,5.30
2022-10-05T15:23:47.179Z,3.85
2022-10-05T15:26:25.065Z,4.07
2022-10-05T15:29:01.405Z,3.95
2022-10-05T15:31:42.816Z,4.00
2022-10-05T15:34:42.021Z,4.47
2022-10-05T15:37:17.691Z,4.40
2022-10-05T15:39:59.962Z,4.43
2022-10-05T15:42:38.197Z,4.95
2022-10-05T15:45:30.519Z,4.45
2022-10-05T15:48:07.827Z,4.38
2022-10-05T15:51:16.886Z,4.63
2022-10-05T15:54:43.151Z,4.70
2022-10-05T15:57:20.739Z,4.35
2022-10-05T16:00:03.974Z,6.05
2022-10-05T16:03:01.888Z,4.35
2022-10-05T16:06:04.166Z,4.80
2022-10-05T16:08:51.746Z,4.65
2022-10-05T16:11:36.541Z,4.80
2022-10-05T16:14:40.537Z,5.07
2022-10-05T16:17:44.907Z,4.80
2022-10-05T16:20:42.800Z,5.20
2022-10-05T16:23:09.222Z,4.88
2022-10-05T16:26:01.362Z,6.82
2022-10-05T16:29:25.276Z,4.95
2022-10-05T16:32:04.291Z,5.05
2022-10-05T16:34:49.557Z,5.75
2022-10-05T16:37:45.305Z,4.80
2022-10-05T16:40:20.283Z,5.35
2022-10-05T16:43:02.300Z,5.30
2022-10-05T16:45:47.065Z,4.97
2022-10-05T16:48:27.892Z,6.25
2022-10-05T16:51:23.150Z,6.13
2022-10-05T16:54:01.396Z,4.82
2022-10-05T16:56:37.451Z,5.82
2022-10-05T16:59:36.589Z,5.35
2022-10-05T17:02:22.613Z,5.53
2022-10-05T17:05:22.400Z,4.80
2022-10-05T17:08:03.754Z,4.70
2022-10-05T17:10:38.202Z,5.30
2022-10-05T17:13:07.592Z,5.40
2022-10-05T17:16:04.057Z,5.85
2022-10-05T17:19:00.566Z,4.30
2022-10-05T17:21:41.303Z,4.50
2022-10-05T17:24:33.570Z,5.78
2022-10-05T17:27:17.641Z,5.20
2022-10-05T17:29:51.780Z,5.32
2022-10-05T17:32:18.253Z,5.20
2022-10-05T17:35:04.033Z,5.18
2022-10-05T17:37:31.765Z,4.97
2022-10-05T17:39:58.909Z,5.63
2022-10-05T17:42:31.557Z,4.50
2022-10-05T17:45:00.007Z,4.93
2022-10-05T17:47:58.474Z,6.65
2022-10-05T17:51:01.848Z,5.35
2022-10-05T17:53:52.737Z,5.13
2022-10-05T17:56:21.988Z,4.97
2022-10-05T17:58:54.321Z,5.00
2022-10-05T18:01:40.361Z,4.97
2022-10-05T18:04:13.087Z,5.18
2022-10-05T18:06:48.039Z,6.07
2022-10-05T18:09:16.926Z,6.10
2022-10-05T18:11:47.945Z,6.03
2022-10-05T18:14:25.061Z,5.20
2022-10-05T18:17:02.011Z,4.70
2022-10-05T18:19:33.103Z,5.82
2022-10-05T18:22:06.056Z,5.50
2022-10-05T18:24:52.970Z,6.45
2022-10-05T18:27:49.656Z,5.50
2022-10-05T18:30:25.072Z,5.68
2022-10-05T18:33:27.983Z,5.22
2022-10-05T18:36:16.965Z,5.32
2022-10-05T18:39:19.863Z,5.38
2022-10-05T18:41:57.747Z,5.30
2022-10-05T18:44:43.226Z,5.00
2022-10-05T18:47:34.414Z,5.25
2022-10-05T18:50:17.323Z,6.72
2022-10-05T18:53:11.887Z,5.28
2022-10-05T18:55:45.045Z,5.70
2022-10-05T18:58:22.376Z,5.18
2022-10-05T19:01:10.645Z,4.68
2022-10-05T19:04:13.932Z,5.20
2022-10-05T19:06:41.214Z,5.32
2022-10-05T19:09:35.248Z,5.65
2022-10-05T19:12:29.253Z,5.30
2022-10-05T19:15:06.844Z,6.18
2022-10-05T19:17:48.050Z,6.45
2022-10-05T19:20:27.096Z,5.03
2022-10-05T19:23:22.231Z,5.10
2022-10-05T19:25:55.360Z,4.95
2022-10-05T19:28:34.100Z,5.28
2022-10-05T19:31:12.844Z,5.55
2022-10-05T19:34:01.509Z,6.28
2022-10-05T19:36:43.804Z,5.68
2022-10-05T19:39:21.315Z,5.32
2022-10-05T19:42:15.291Z,5.40
2022-10-05T19:45:00.096Z,5.65
2022-10-05T19:48:03.829Z,5.43
2022-10-05T19:50:33.546Z,5.20
2022-10-05T19:53:08.050Z,5.80
2022-10-05T19:55:39.491Z,5.82
2022-10-05T19:58:22.665Z,7.20
2022-10-05T20:01:07.789Z,5.85
2022-10-05T20:03:37.857Z,5.75
2022-10-05T20:06:07.262Z,5.88
2022-10-05T20:08:39.600Z,6.88
2022-10-05T20:11:09.791Z,4.53
2022-10-05T20:13:39.054Z,4.30
2022-10-05T20:16:33.456Z,4.15
2022-10-05T20:19:18.633Z,4.85
2022-10-05T20:21:48.500Z,4.40
2022-10-05T20:24:23.355Z,5.50
2022-10-05T20:27:01.902Z,5.22
2022-10-05T20:29:30.118Z,4.10
2022-10-05T20:31:56.842Z,3.70
2022-10-05T20:34:24.017Z,4.50
2022-10-05T20:36:51.058Z,6.40
2022-10-05T20:39:18.646Z,4.32
2022-10-05T20:41:45.632Z,4.40
2022-10-05T20:44:13.239Z,3.67
2022-10-05T20:46:41.605Z,5.28
2022-10-05T20:49:10.550Z,3.88
2022-10-05T20:51:40.382Z,3.60
2022-10-05T20:54:07.889Z,4.28
2022-10-05T20:56:34.771Z,4.75
2022-10-05T20:59:01.318Z,5.65
2022-10-05T21:01:28.854Z,7.45
2022-10-05T21:03:55.786Z,4.72
2022-10-05T21:06:22.776Z,6.82
2022-10-05T21:08:51.327Z,5.72
2022-10-05T21:11:17.842Z,5.97
2022-10-05T21:13:47.541Z,5.68
2022-10-05T21:16:16.648Z,4.35
2022-10-05T21:18:46.751Z,5.38
2022-10-05T21:21:17.942Z,3.83
2022-10-05T21:23:45.699Z,3.75
2022-10-05T21:26:12.780Z,4.93
2022-10-05T21:28:39.905Z,3.80
2022-10-05T21:31:08.095Z,3.53
2022-10-05T21:33:35.387Z,3.72
2022-10-05T21:36:01.989Z,2.88
2022-10-05T21:38:29.603Z,2.67
2022-10-05T21:40:56.381Z,2.70
2022-10-05T21:43:22.831Z,4.55
2022-10-05T21:45:50.365Z,3.28
2022-10-05T21:48:18.470Z,3.65
2022-10-05T21:50:45.676Z,3.70
2022-10-05T21:53:14.673Z,3.38
2022-10-05T21:55:44.095Z,3.97
2022-10-05T21:58:13.248Z,4.30
2022-10-05T22:00:40.998Z,3.17
2022-10-05T22:03:08.528Z,3.10
2022-10-05T22:05:35.546Z,2.42
2022-10-05T22:08:03.401Z,2.70
2022-10-05T22:10:30.366Z,4.35
2022-10-05T22:13:01.493Z,3.05
2022-10-05T22:15:29.960Z,4.85
2022-10-05T22:17:59.711Z,2.40
2022-10-05T22:20:30.111Z,2.13
2022-10-05T22:22:56.690Z,2.90
2022-10-05T22:25:23.154Z,2.10
2022-10-05T22:27:50.029Z,3.67
2022-10-05T22:30:16.927Z,3.17
2022-10-05T22:32:43.998Z,3.50
2022-10-05T22:35:11.773Z,3.47
2022-10-05T22:37:38.637Z,2.58
2022-10-05T22:40:06.655Z,3.80
2022-10-05T22:42:33.616Z,5.82
2022-10-05T22:45:00.165Z,5.38
2022-10-05T22:47:26.629Z,2.85
2022-10-05T22:49:53.100Z,4.13
2022-10-05T22:52:19.569Z,5.38
2022-10-05T22:54:46.016Z,3.55
2022-10-05T22:57:12.469Z,4.38
2022-10-05T22:59:38.935Z,5.35
2022-10-05T23:02:05.546Z,4.68
2022-10-05T23:04:32.070Z,6.07
2022-10-05T23:06:58.900Z,4.93
2022-10-05T23:09:25.364Z,5.32
2022-10-05T23:11:54.134Z,6.85
2022-10-05T23:14:20.917Z,7.28
2022-10-05T23:16:47.736Z,4.85
2022-10-05T23:19:14.259Z,4.68
2022-10-05T23:21:40.719Z,6.28
2022-10-05T23:24:07.441Z,5.47
2022-10-05T23:26:34.635Z,6.40
2022-10-05T23:29:01.127Z,6.60
2022-10-05T23:31:30.655Z,8.25
2022-10-05T23:33:57.249Z,5.95
2022-10-05T23:36:26.776Z,7.63
2022-10-05T23:38:53.395Z,6.60
2022-10-05T23:41:20.303Z,5.97
2022-10-05T23:43:47.111Z,5.45
2022-10-05T23:46:14.225Z,6.25
2022-10-05T23:48:40.759Z,7.15
2022-10-05T23:51:09.414Z,5.55
2022-10-05T23:53:35.952Z,6.90
2022-10-05T23:56:02.971Z,6.63
2022-10-05T23:58:30.094Z,5.85
